Wilson, KS (67490)

6:16 PM CDT on September 23, 2014 (GMT -0500)
Wilson | Change Station
CLOSE
Current Station
Personal Weather Station
Location: Wilson, KS
Elevation: 1689 ft
Nearby Weather Stations

Elev 1689 ft 38.82 °N, 98.47 °W | Updated 25 seconds ago

Partly Cloudy
Partly Cloudy
76.4 °F
Feels Like 78 °F
N
11.8
Wind Variable Wind from SE
Gusts 16.1 mph

Today
High -- | Low -- °F
--% Chance of Precip.
Yesterday
High -- | Low -- °F
Precip. -- in
7:22 AM 7:29 PM
Waning Crescent, 0% visible
Pressure 29.94 in
Visibility 10.0 miles
Clouds Clear
Heat Index 78 °F
Dew Point 57 °F
Humidity 51%
Rainfall 0.49 in
Snow Depth Not available.
UV 1 out of 12
Pollen 3.70 out of 12
Air Quality Not available.
Flu Activity Not available.
METAR KRSL 232253Z AUTO 14013KT 10SM CLR 24/14 A2997 RMK AO2 RAB24E33 SLP136 P0000 T02440144

More Conditions Fewer Conditions

Pressure 29.94 in
Visibility 10.0 miles
Clouds Clear
Heat Index 78 °F
Dew Point 57 °F
Humidity 51%
Rainfall 0.49 in
Snow Depth Not available.
UV 1 out of 12
Pollen 3.70 out of 12
Air Quality Not available.
Flu Activity Not available.
METAR KRSL 232253Z AUTO 14013KT 10SM CLR 24/14 A2997 RMK AO2 RAB24E33 SLP136 P0000 T02440144

More Conditions Fewer Conditions

10-Day Weather Forecast

Almanac

Astronomy

Sep. 23, 2014 Rise Set
Actual Time 7:22 AM CDT 7:29 PM CDT
Civil Twilight 6:55 AM CDT 7:55 PM CDT
Nautical Twilight 6:24 AM CDT 8:26 PM CDT
Astronomical Twilight 5:53 AM CDT 8:58 PM CDT
Moon 6:48 AM CDT 7:09 PM CDT
Length of Visible Light 12h 59m
Length of Day
12h 06m
Tomorrow will be 2m 30s shorter.
Waning Crescent, 0% of the Moon is Illuminated
Today
Waning Crescent
Sep 24
New
Oct 1
First Quarter
Oct 8
Full
Oct 15
Last Quarter

Today's Extremes

State Highs State Lows

Community

WunderPhotos

Upload Photos

1,755,824 photos uploaded!

WunderBlogs® & News

Nearby

Snow Depth

Station Depth Elevation
No new snow has been reported.

Earthquake Activity

City Distance Mag. Time & Date
No recent earthquake activity has been reported nearby.
Minimum magnitude displayed is 2.5.

Coastal Water Temperatures

Place Temperature
No Stations Reporting

Nearby Weather Stations